createdAt,value
2023-02-18T00:00:37.000Z,11.98
2023-02-18T00:01:37.000Z,12.01
2023-02-18T00:02:37.000Z,12.00
2023-02-18T00:03:41.000Z,12.00
2023-02-18T00:04:37.000Z,11.97
2023-02-18T00:05:36.000Z,11.97
2023-02-18T00:06:37.000Z,12.01
2023-02-18T00:07:38.000Z,12.00
2023-02-18T00:08:37.000Z,12.01
2023-02-18T00:09:37.000Z,11.98
2023-02-18T00:10:39.000Z,11.98
2023-02-18T00:11:37.000Z,11.95
2023-02-18T00:12:37.000Z,11.97
2023-02-18T00:13:37.000Z,11.94
2023-02-18T00:14:37.000Z,11.97
2023-02-18T00:15:37.000Z,11.97
2023-02-18T00:16:37.000Z,11.95
2023-02-18T00:17:37.000Z,11.97
2023-02-18T00:18:37.000Z,11.92
2023-02-18T00:19:36.000Z,11.97
2023-02-18T00:20:37.000Z,11.94
2023-02-18T00:21:37.000Z,11.94
2023-02-18T00:22:37.000Z,11.95
2023-02-18T00:23:37.000Z,11.94
2023-02-18T00:24:37.000Z,11.94
2023-02-18T00:25:36.000Z,11.94
2023-02-18T00:26:36.000Z,11.94
2023-02-18T00:27:36.000Z,11.94
2023-02-18T00:28:37.000Z,11.97
2023-02-18T00:29:36.000Z,11.95
2023-02-18T00:30:41.000Z,11.98
2023-02-18T00:31:37.000Z,11.94
2023-02-18T00:32:37.000Z,11.91
2023-02-18T00:33:37.000Z,11.94
2023-02-18T00:34:37.000Z,11.94
2023-02-18T00:35:36.000Z,11.95
2023-02-18T00:36:37.000Z,11.94
2023-02-18T00:37:37.000Z,11.95
2023-02-18T00:38:37.000Z,11.92
2023-02-18T00:39:37.000Z,11.95
2023-02-18T00:40:38.000Z,11.92
2023-02-18T00:41:37.000Z,11.94
2023-02-18T00:42:37.000Z,11.95
2023-02-18T00:43:37.000Z,11.92
2023-02-18T00:44:37.000Z,11.91
2023-02-18T00:45:36.000Z,11.91
2023-02-18T00:46:37.000Z,11.94
2023-02-18T00:47:36.000Z,11.91
2023-02-18T00:48:37.000Z,11.92
2023-02-18T00:49:37.000Z,11.95
2023-02-18T00:50:37.000Z,11.92
2023-02-18T00:51:36.000Z,11.92
2023-02-18T00:52:37.000Z,11.91
2023-02-18T00:53:38.000Z,11.92
2023-02-18T00:54:36.000Z,11.94
2023-02-18T00:55:42.000Z,11.92
2023-02-18T00:56:36.000Z,11.90
2023-02-18T00:57:36.000Z,11.92
2023-02-18T00:58:37.000Z,11.94
2023-02-18T00:59:36.000Z,11.92
2023-02-18T01:00:37.000Z,11.94
2023-02-18T01:01:36.000Z,11.92
2023-02-18T01:02:36.000Z,11.92
2023-02-18T01:03:38.000Z,11.94
2023-02-18T01:04:36.000Z,11.92
2023-02-18T01:05:37.000Z,11.94
2023-02-18T01:06:37.000Z,11.94
2023-02-18T01:07:36.000Z,11.94
2023-02-18T01:08:38.000Z,11.92
2023-02-18T01:09:36.000Z,11.94
2023-02-18T01:10:40.000Z,11.94
2023-02-18T01:11:36.000Z,11.94
2023-02-18T01:12:37.000Z,11.91
2023-02-18T01:13:37.000Z,11.92
2023-02-18T01:14:36.000Z,11.94
2023-02-18T01:15:38.000Z,11.91
2023-02-18T01:16:36.000Z,11.91
2023-02-18T01:17:36.000Z,11.91
2023-02-18T01:18:38.000Z,11.92
2023-02-18T01:19:36.000Z,11.92
2023-02-18T01:20:38.000Z,11.92
2023-02-18T01:21:37.000Z,11.91
2023-02-18T01:22:37.000Z,11.91
2023-02-18T01:23:39.000Z,11.91
2023-02-18T01:24:36.000Z,11.91
2023-02-18T01:25:37.000Z,11.90
2023-02-18T01:26:36.000Z,11.91
2023-02-18T01:27:36.000Z,11.90
2023-02-18T01:28:38.000Z,11.91
2023-02-18T01:29:36.000Z,11.90
2023-02-18T01:30:37.000Z,11.91
2023-02-18T01:31:36.000Z,11.90
2023-02-18T01:32:36.000Z,11.91
2023-02-18T01:33:37.000Z,11.91
2023-02-18T01:34:36.000Z,11.91
2023-02-18T01:35:40.000Z,11.91
2023-02-18T01:36:36.000Z,11.90
2023-02-18T01:37:36.000Z,11.90
2023-02-18T01:38:37.000Z,11.88
2023-02-18T01:39:36.000Z,11.90
2023-02-18T01:40:45.000Z,11.91
2023-02-18T01:41:36.000Z,11.90
2023-02-18T01:42:37.000Z,11.91
2023-02-18T01:43:37.000Z,11.90
2023-02-18T01:44:36.000Z,11.90
2023-02-18T01:46:00.000Z,11.90
2023-02-18T01:46:36.000Z,11.90
2023-02-18T01:47:36.000Z,11.90
2023-02-18T01:48:41.000Z,11.90
2023-02-18T01:49:37.000Z,11.88
2023-02-18T01:50:42.000Z,11.88
2023-02-18T01:51:43.000Z,11.90
2023-02-18T01:52:36.000Z,11.88
2023-02-18T01:53:46.000Z,11.90
2023-02-18T01:54:41.000Z,11.91
2023-02-18T01:55:37.000Z,11.92
2023-02-18T01:56:45.000Z,11.92
2023-02-18T01:57:37.000Z,11.92
2023-02-18T01:58:37.000Z,11.91
2023-02-18T01:59:50.000Z,11.91
2023-02-18T02:00:37.000Z,11.92
2023-02-18T02:01:40.000Z,11.91
2023-02-18T02:02:42.000Z,11.90
2023-02-18T02:03:37.000Z,11.92
2023-02-18T02:04:37.000Z,11.91
2023-02-18T02:05:37.000Z,11.94
2023-02-18T02:06:37.000Z,11.91
2023-02-18T02:07:39.000Z,11.91
2023-02-18T02:08:37.000Z,11.92
2023-02-18T02:09:39.000Z,11.91
2023-02-18T02:10:51.000Z,11.91
2023-02-18T02:11:47.000Z,11.91
2023-02-18T02:12:47.000Z,11.90
2023-02-18T02:13:56.000Z,11.90
2023-02-18T02:14:47.000Z,11.88
2023-02-18T02:15:48.000Z,11.88
2023-02-18T02:16:47.000Z,11.87
2023-02-18T02:17:57.000Z,11.85
2023-02-18T02:18:57.000Z,11.90
2023-02-18T02:19:47.000Z,11.90
2023-02-18T02:20:47.000Z,11.90
2023-02-18T02:21:54.000Z,11.92
2023-02-18T02:22:47.000Z,11.88
2023-02-18T02:23:47.000Z,11.88
2023-02-18T02:24:47.000Z,11.90
2023-02-18T02:25:59.000Z,11.88
2023-02-18T02:27:07.000Z,11.87
2023-02-18T02:27:56.000Z,11.87
2023-02-18T02:28:59.000Z,11.88
2023-02-18T02:29:56.000Z,11.88
2023-02-18T02:30:47.000Z,11.85
2023-02-18T02:31:46.000Z,11.87
2023-02-18T02:33:10.000Z,11.85
2023-02-18T02:33:47.000Z,11.85
2023-02-18T02:34:47.000Z,11.87
2023-02-18T02:35:50.000Z,11.88
2023-02-18T02:36:47.000Z,11.85
2023-02-18T02:37:46.000Z,11.87
2023-02-18T02:38:47.000Z,11.84
2023-02-18T02:39:57.000Z,11.84
2023-02-18T02:40:50.000Z,11.84
2023-02-18T02:41:52.000Z,11.85
2023-02-18T02:42:49.000Z,11.84
2023-02-18T02:43:48.000Z,11.83
2023-02-18T02:45:04.000Z,11.84
2023-02-18T02:45:52.000Z,11.84
2023-02-18T02:46:43.000Z,11.84
2023-02-18T02:47:48.000Z,11.84
2023-02-18T02:48:46.000Z,11.84
2023-02-18T02:49:46.000Z,11.84
2023-02-18T02:50:59.000Z,11.81
2023-02-18T02:51:47.000Z,11.84
2023-02-18T02:52:42.000Z,11.85
2023-02-18T02:53:40.000Z,11.83
2023-02-18T02:54:36.000Z,11.83
2023-02-18T02:55:36.000Z,11.83
2023-02-18T02:56:36.000Z,11.80
2023-02-18T02:57:42.000Z,11.81
2023-02-18T02:58:36.000Z,11.81
2023-02-18T02:59:42.000Z,11.83
2023-02-18T03:00:54.000Z,11.80
2023-02-18T03:02:00.000Z,11.81
2023-02-18T03:02:47.000Z,11.81
2023-02-18T03:04:00.000Z,11.81
2023-02-18T03:04:47.000Z,11.80
2023-02-18T03:05:53.000Z,11.80
2023-02-18T03:06:47.000Z,11.83
2023-02-18T03:07:48.000Z,11.78
2023-02-18T03:08:47.000Z,11.83
2023-02-18T03:09:57.000Z,11.80
2023-02-18T03:10:46.000Z,11.80
2023-02-18T03:11:55.000Z,11.80
2023-02-18T03:12:50.000Z,11.80
2023-02-18T03:13:51.000Z,11.78
2023-02-18T03:14:56.000Z,11.77
2023-02-18T03:15:47.000Z,11.78
2023-02-18T03:16:45.000Z,11.80
2023-02-18T03:17:47.000Z,11.78
2023-02-18T03:18:39.000Z,11.77
2023-02-18T03:19:41.000Z,11.76
2023-02-18T03:20:49.000Z,11.71
2023-02-18T03:21:43.000Z,11.73
2023-02-18T03:22:42.000Z,11.71
2023-02-18T03:23:42.000Z,11.73
2023-02-18T03:24:42.000Z,11.74
2023-02-18T03:25:38.000Z,11.73
2023-02-18T03:26:45.000Z,11.73
2023-02-18T03:27:44.000Z,11.73
2023-02-18T03:28:37.000Z,11.73
2023-02-18T03:29:39.000Z,11.71
2023-02-18T03:30:57.000Z,11.71
2023-02-18T03:31:39.000Z,11.71
2023-02-18T03:32:37.000Z,11.71
2023-02-18T03:33:44.000Z,11.70
2023-02-18T03:34:41.000Z,11.71
2023-02-18T03:35:37.000Z,11.69
2023-02-18T03:36:37.000Z,11.71
2023-02-18T03:37:44.000Z,11.69
2023-02-18T03:38:44.000Z,11.69
2023-02-18T03:39:42.000Z,11.71
2023-02-18T03:40:37.000Z,11.69
2023-02-18T03:41:37.000Z,11.71
2023-02-18T03:42:37.000Z,11.71
2023-02-18T03:43:39.000Z,11.70
2023-02-18T03:44:37.000Z,11.70
2023-02-18T03:45:37.000Z,11.67
2023-02-18T03:46:39.000Z,11.69
2023-02-18T03:47:37.000Z,11.70
2023-02-18T03:48:37.000Z,11.66
2023-02-18T03:49:37.000Z,11.69
2023-02-18T03:50:37.000Z,11.69
2023-02-18T03:51:37.000Z,11.70
2023-02-18T03:52:37.000Z,11.70
2023-02-18T03:53:37.000Z,11.69
2023-02-18T03:54:37.000Z,11.71
2023-02-18T03:55:37.000Z,11.69
2023-02-18T03:56:37.000Z,11.69
2023-02-18T03:57:37.000Z,11.70
2023-02-18T03:58:37.000Z,11.71
2023-02-18T03:59:37.000Z,11.71
2023-02-18T04:00:37.000Z,11.71
2023-02-18T04:01:37.000Z,11.70
2023-02-18T04:02:37.000Z,11.70
2023-02-18T04:03:37.000Z,11.70
2023-02-18T04:04:37.000Z,11.70
2023-02-18T04:05:37.000Z,11.70
2023-02-18T04:06:37.000Z,11.69
2023-02-18T04:07:37.000Z,11.67
2023-02-18T04:08:37.000Z,11.66
2023-02-18T04:09:36.000Z,11.67
2023-02-18T04:10:37.000Z,11.67
2023-02-18T04:11:38.000Z,11.64
2023-02-18T04:12:37.000Z,11.66
2023-02-18T04:13:37.000Z,11.69
2023-02-18T04:14:36.000Z,11.67
2023-02-18T04:15:37.000Z,11.67
2023-02-18T04:16:37.000Z,11.67
2023-02-18T04:17:37.000Z,11.67
2023-02-18T04:18:37.000Z,11.67
2023-02-18T04:19:37.000Z,11.67
2023-02-18T04:20:37.000Z,11.67
2023-02-18T04:21:37.000Z,11.67
2023-02-18T04:22:37.000Z,11.69
2023-02-18T04:23:37.000Z,11.69
2023-02-18T04:24:37.000Z,11.67
2023-02-18T04:25:37.000Z,11.67
2023-02-18T04:26:36.000Z,11.64
2023-02-18T04:27:36.000Z,11.66
2023-02-18T04:28:36.000Z,11.66
2023-02-18T04:29:36.000Z,11.64
2023-02-18T04:30:36.000Z,11.66
2023-02-18T04:31:36.000Z,11.67
2023-02-18T04:32:37.000Z,11.64
2023-02-18T04:33:36.000Z,11.66
2023-02-18T04:34:36.000Z,11.63
2023-02-18T04:35:38.000Z,11.63
2023-02-18T04:36:36.000Z,11.64
2023-02-18T04:37:36.000Z,11.64
2023-02-18T04:38:36.000Z,11.61
2023-02-18T04:39:36.000Z,11.61
2023-02-18T04:40:36.000Z,11.61
2023-02-18T04:41:36.000Z,11.61
2023-02-18T04:42:36.000Z,11.61
2023-02-18T04:43:37.000Z,11.61
2023-02-18T04:44:37.000Z,11.60
2023-02-18T04:45:36.000Z,11.60
2023-02-18T04:46:36.000Z,11.60
2023-02-18T04:47:36.000Z,11.60
2023-02-18T04:48:36.000Z,11.61
2023-02-18T04:49:36.000Z,11.59
2023-02-18T04:50:37.000Z,11.59
2023-02-18T04:51:36.000Z,11.57
2023-02-18T04:52:36.000Z,11.60
2023-02-18T04:53:36.000Z,11.59
2023-02-18T04:54:36.000Z,11.59
2023-02-18T04:55:36.000Z,11.56
2023-02-18T04:56:36.000Z,11.56
2023-02-18T04:57:37.000Z,11.56
2023-02-18T04:58:36.000Z,11.56
2023-02-18T04:59:37.000Z,11.52
2023-02-18T05:00:37.000Z,11.52
2023-02-18T05:01:37.000Z,11.52
2023-02-18T05:02:37.000Z,11.53
2023-02-18T05:03:37.000Z,11.52
2023-02-18T05:04:36.000Z,11.53
2023-02-18T05:05:37.000Z,11.52
2023-02-18T05:06:38.000Z,11.52
2023-02-18T05:07:37.000Z,11.49
2023-02-18T05:08:37.000Z,11.49
2023-02-18T05:09:37.000Z,11.50
2023-02-18T05:10:37.000Z,11.49
2023-02-18T05:11:36.000Z,11.46
2023-02-18T05:12:37.000Z,11.47
2023-02-18T05:13:37.000Z,11.45
2023-02-18T05:14:37.000Z,11.45
2023-02-18T05:15:37.000Z,11.43
2023-02-18T05:16:37.000Z,11.43
2023-02-18T05:17:37.000Z,11.42
2023-02-18T05:18:37.000Z,11.42
2023-02-18T05:19:36.000Z,11.39
2023-02-18T05:20:36.000Z,11.40
2023-02-18T05:21:36.000Z,11.36
2023-02-18T05:22:37.000Z,11.42
2023-02-18T05:23:37.000Z,11.40
2023-02-18T05:24:37.000Z,11.38
2023-02-18T05:25:36.000Z,11.38
2023-02-18T05:26:36.000Z,11.38
2023-02-18T05:27:37.000Z,11.35
2023-02-18T05:28:37.000Z,11.39
2023-02-18T05:29:36.000Z,11.38
2023-02-18T05:30:37.000Z,11.36
2023-02-18T05:31:37.000Z,11.36
2023-02-18T05:32:37.000Z,11.35
2023-02-18T05:33:37.000Z,11.35
2023-02-18T05:34:37.000Z,11.33
2023-02-18T05:35:37.000Z,11.35
2023-02-18T05:36:37.000Z,11.35
2023-02-18T05:37:37.000Z,11.33
2023-02-18T05:38:37.000Z,11.33
2023-02-18T05:39:37.000Z,11.32
2023-02-18T05:40:37.000Z,11.32
2023-02-18T05:41:37.000Z,11.32
2023-02-18T05:42:36.000Z,11.30
2023-02-18T05:43:42.000Z,11.35
2023-02-18T05:44:37.000Z,11.32
2023-02-18T05:45:37.000Z,11.30
2023-02-18T05:46:36.000Z,11.32
2023-02-18T05:47:37.000Z,11.32
2023-02-18T05:48:36.000Z,11.32
2023-02-18T05:49:38.000Z,11.32
2023-02-18T05:50:37.000Z,11.32
2023-02-18T05:51:37.000Z,11.33
2023-02-18T05:52:37.000Z,11.32
2023-02-18T05:53:36.000Z,11.33
2023-02-18T05:54:37.000Z,11.30
2023-02-18T05:55:37.000Z,11.29
2023-02-18T05:56:36.000Z,11.29
2023-02-18T05:57:36.000Z,11.30
2023-02-18T05:58:37.000Z,11.30
2023-02-18T05:59:36.000Z,11.30
2023-02-18T06:00:36.000Z,11.27
2023-02-18T06:01:36.000Z,11.30
2023-02-18T06:02:36.000Z,11.32
2023-02-18T06:03:36.000Z,11.29
2023-02-18T06:04:37.000Z,11.27
2023-02-18T06:05:36.000Z,11.30
2023-02-18T06:06:37.000Z,11.27
2023-02-18T06:07:37.000Z,11.27
2023-02-18T06:08:37.000Z,11.29
2023-02-18T06:09:36.000Z,11.26
2023-02-18T06:10:39.000Z,11.27
2023-02-18T06:11:37.000Z,11.26
2023-02-18T06:12:36.000Z,11.23
2023-02-18T06:13:37.000Z,11.25
2023-02-18T06:14:37.000Z,11.23
2023-02-18T06:15:37.000Z,11.23
2023-02-18T06:16:37.000Z,11.23
2023-02-18T06:17:36.000Z,11.22
2023-02-18T06:18:36.000Z,11.25
2023-02-18T06:19:37.000Z,11.23
2023-02-18T06:20:38.000Z,11.25
2023-02-18T06:21:37.000Z,11.23
2023-02-18T06:22:36.000Z,11.21
2023-02-18T06:23:37.000Z,11.21
2023-02-18T06:24:36.000Z,11.21
2023-02-18T06:25:36.000Z,11.19
2023-02-18T06:26:36.000Z,11.19
2023-02-18T06:27:36.000Z,11.21
2023-02-18T06:28:36.000Z,11.19
2023-02-18T06:29:37.000Z,11.21
2023-02-18T06:30:36.000Z,11.16
2023-02-18T06:31:36.000Z,11.18
2023-02-18T06:32:36.000Z,11.18
2023-02-18T06:33:36.000Z,11.18
2023-02-18T06:34:36.000Z,11.16
2023-02-18T06:35:36.000Z,11.18
2023-02-18T06:36:36.000Z,11.16
2023-02-18T06:37:36.000Z,11.18
2023-02-18T06:38:38.000Z,11.15
2023-02-18T06:39:38.000Z,11.15
2023-02-18T06:40:36.000Z,11.16
2023-02-18T06:41:36.000Z,11.15
2023-02-18T06:42:36.000Z,11.16
2023-02-18T06:43:37.000Z,11.18
2023-02-18T06:44:36.000Z,11.18
2023-02-18T06:45:38.000Z,11.18
2023-02-18T06:46:36.000Z,11.21
2023-02-18T06:47:36.000Z,11.18
2023-02-18T06:48:37.000Z,11.21
2023-02-18T06:49:37.000Z,11.21
2023-02-18T06:50:37.000Z,11.19
2023-02-18T06:51:36.000Z,11.22
2023-02-18T06:52:36.000Z,11.22
2023-02-18T06:53:36.000Z,11.27
2023-02-18T06:54:36.000Z,11.22
2023-02-18T06:55:37.000Z,11.26
2023-02-18T06:56:36.000Z,11.27
2023-02-18T06:57:36.000Z,11.27
2023-02-18T06:58:37.000Z,11.29
2023-02-18T06:59:36.000Z,11.26
2023-02-18T07:00:37.000Z,11.27
2023-02-18T07:01:36.000Z,11.30
2023-02-18T07:02:36.000Z,11.29
2023-02-18T07:03:36.000Z,11.32
2023-02-18T07:04:36.000Z,11.32
2023-02-18T07:05:36.000Z,11.32
2023-02-18T07:06:36.000Z,11.33
2023-02-18T07:07:36.000Z,11.33
2023-02-18T07:08:37.000Z,11.33
2023-02-18T07:09:36.000Z,11.33
2023-02-18T07:10:37.000Z,11.38
2023-02-18T07:11:36.000Z,11.42
2023-02-18T07:12:36.000Z,11.43
2023-02-18T07:13:36.000Z,11.45
2023-02-18T07:14:37.000Z,11.43
2023-02-18T07:15:36.000Z,11.43
2023-02-18T07:16:36.000Z,11.42
2023-02-18T07:17:36.000Z,11.45
2023-02-18T07:18:36.000Z,11.46
2023-02-18T07:19:36.000Z,11.46
2023-02-18T07:20:36.000Z,11.47
2023-02-18T07:21:36.000Z,11.50
2023-02-18T07:22:36.000Z,11.46
2023-02-18T07:23:36.000Z,11.49
2023-02-18T07:24:36.000Z,11.49
2023-02-18T07:25:36.000Z,11.49
2023-02-18T07:26:36.000Z,11.52
2023-02-18T07:27:37.000Z,11.54
2023-02-18T07:28:37.000Z,11.53
2023-02-18T07:29:36.000Z,11.56
2023-02-18T07:30:36.000Z,11.54
2023-02-18T07:31:37.000Z,11.56
2023-02-18T07:32:36.000Z,11.54
2023-02-18T07:33:36.000Z,11.56
2023-02-18T07:34:36.000Z,11.60
2023-02-18T07:35:36.000Z,11.60
2023-02-18T07:36:36.000Z,11.61
2023-02-18T07:37:36.000Z,11.63
2023-02-18T07:38:36.000Z,11.63
2023-02-18T07:39:41.000Z,11.63
2023-02-18T07:40:36.000Z,11.64
2023-02-18T07:41:36.000Z,11.64
2023-02-18T07:42:36.000Z,11.66
2023-02-18T07:43:36.000Z,11.67
2023-02-18T07:44:37.000Z,11.73
2023-02-18T07:45:37.000Z,11.69
2023-02-18T07:46:39.000Z,11.74
2023-02-18T07:47:36.000Z,11.70
2023-02-18T07:48:36.000Z,11.74
2023-02-18T07:49:36.000Z,11.71
2023-02-18T07:50:41.000Z,11.74
2023-02-18T07:51:38.000Z,11.76
2023-02-18T07:52:36.000Z,11.74
2023-02-18T07:53:37.000Z,11.76
2023-02-18T07:54:36.000Z,11.77
2023-02-18T07:55:41.000Z,11.81
2023-02-18T07:56:36.000Z,11.81
2023-02-18T07:57:51.000Z,11.81
2023-02-18T07:58:37.000Z,11.87
2023-02-18T07:59:36.000Z,11.87
2023-02-18T08:00:36.000Z,11.87
2023-02-18T08:01:37.000Z,11.88
2023-02-18T08:02:36.000Z,11.90
2023-02-18T08:03:36.000Z,11.91
2023-02-18T08:04:36.000Z,11.94
2023-02-18T08:05:36.000Z,11.95
2023-02-18T08:06:39.000Z,12.02
2023-02-18T08:07:38.000Z,12.01
2023-02-18T08:08:36.000Z,12.02
2023-02-18T08:09:36.000Z,12.06
2023-02-18T08:10:36.000Z,12.06
2023-02-18T08:11:36.000Z,12.08
2023-02-18T08:12:36.000Z,12.11
2023-02-18T08:13:36.000Z,12.11
2023-02-18T08:14:36.000Z,12.14
2023-02-18T08:15:38.000Z,12.14
2023-02-18T08:16:36.000Z,12.22
2023-02-18T08:17:36.000Z,12.21
2023-02-18T08:18:36.000Z,12.27
2023-02-18T08:19:36.000Z,12.25
2023-02-18T08:20:36.000Z,12.27
2023-02-18T08:21:36.000Z,12.29
2023-02-18T08:22:36.000Z,12.31
2023-02-18T08:23:36.000Z,12.25
2023-02-18T08:24:36.000Z,12.28
2023-02-18T08:25:36.000Z,12.31
2023-02-18T08:26:36.000Z,12.28
2023-02-18T08:27:36.000Z,12.28
2023-02-18T08:28:36.000Z,12.27
2023-02-18T08:29:36.000Z,12.28
2023-02-18T08:30:36.000Z,12.32
2023-02-18T08:31:36.000Z,12.32
2023-02-18T08:32:36.000Z,12.29
2023-02-18T08:33:36.000Z,12.33
2023-02-18T08:34:36.000Z,12.32
2023-02-18T08:35:37.000Z,12.32
2023-02-18T08:36:36.000Z,12.35
2023-02-18T08:37:36.000Z,12.33
2023-02-18T08:38:37.000Z,12.32
2023-02-18T08:39:37.000Z,12.32
2023-02-18T08:40:37.000Z,12.31
2023-02-18T08:41:36.000Z,12.31
2023-02-18T08:42:37.000Z,12.32
2023-02-18T08:43:37.000Z,12.32
2023-02-18T08:44:37.000Z,12.35
2023-02-18T08:45:38.000Z,12.33
2023-02-18T08:46:36.000Z,12.35
2023-02-18T08:47:37.000Z,12.33
2023-02-18T08:48:36.000Z,12.35
2023-02-18T08:49:36.000Z,12.38
2023-02-18T08:50:37.000Z,12.33
2023-02-18T08:51:36.000Z,12.36
2023-02-18T08:52:37.000Z,12.36
2023-02-18T08:53:37.000Z,12.36
2023-02-18T08:54:37.000Z,12.38
2023-02-18T08:55:39.000Z,12.39
2023-02-18T08:56:37.000Z,12.39
2023-02-18T08:57:36.000Z,12.46
2023-02-18T08:58:37.000Z,12.52
2023-02-18T08:59:37.000Z,12.51
2023-02-18T09:00:39.000Z,12.53
2023-02-18T09:01:36.000Z,12.52
2023-02-18T09:02:36.000Z,12.60
2023-02-18T09:03:37.000Z,12.63
2023-02-18T09:04:36.000Z,12.63
2023-02-18T09:05:37.000Z,12.64
2023-02-18T09:06:38.000Z,12.66
2023-02-18T09:07:36.000Z,12.64
2023-02-18T09:08:52.000Z,12.69
2023-02-18T09:09:36.000Z,12.72
2023-02-18T09:10:37.000Z,12.70
2023-02-18T09:11:36.000Z,12.77
2023-02-18T09:12:36.000Z,12.80
2023-02-18T09:13:37.000Z,12.77
2023-02-18T09:14:36.000Z,12.81
2023-02-18T09:15:36.000Z,12.80
2023-02-18T09:16:38.000Z,12.81
2023-02-18T09:17:36.000Z,12.83
2023-02-18T09:18:36.000Z,12.83
2023-02-18T09:19:36.000Z,12.83
2023-02-18T09:20:38.000Z,12.84
2023-02-18T09:21:36.000Z,12.88
2023-02-18T09:22:36.000Z,12.93
2023-02-18T09:23:37.000Z,12.91
2023-02-18T09:24:38.000Z,12.93
2023-02-18T09:25:38.000Z,12.96
2023-02-18T09:26:37.000Z,12.96
2023-02-18T09:27:36.000Z,13.03
2023-02-18T09:28:36.000Z,13.00
2023-02-18T09:29:38.000Z,13.03
2023-02-18T09:30:37.000Z,13.07
2023-02-18T09:31:37.000Z,13.07
2023-02-18T09:32:36.000Z,13.07
2023-02-18T09:33:38.000Z,13.07
2023-02-18T09:34:37.000Z,13.04
2023-02-18T09:35:45.000Z,13.04
2023-02-18T09:36:37.000Z,13.04
2023-02-18T09:37:38.000Z,13.03
2023-02-18T09:38:37.000Z,13.03
2023-02-18T09:39:37.000Z,13.06
2023-02-18T09:40:41.000Z,13.07
2023-02-18T09:41:48.000Z,13.07
2023-02-18T09:42:37.000Z,13.06
2023-02-18T09:43:44.000Z,13.04
2023-02-18T09:44:47.000Z,13.03
2023-02-18T09:45:37.000Z,13.01
2023-02-18T09:46:47.000Z,13.04
2023-02-18T09:47:40.000Z,13.08
2023-02-18T09:48:37.000Z,13.07
2023-02-18T09:49:40.000Z,13.11
2023-02-18T09:50:37.000Z,13.10
2023-02-18T09:51:37.000Z,13.08
2023-02-18T09:52:37.000Z,13.08
2023-02-18T09:53:37.000Z,13.11
2023-02-18T09:54:37.000Z,13.07
2023-02-18T09:55:39.000Z,13.11
2023-02-18T09:56:39.000Z,13.10
2023-02-18T09:57:42.000Z,13.08
2023-02-18T09:58:37.000Z,13.08
2023-02-18T09:59:37.000Z,13.13
2023-02-18T10:00:40.000Z,13.14
2023-02-18T10:01:39.000Z,13.15
2023-02-18T10:02:38.000Z,13.13
2023-02-18T10:03:37.000Z,13.14
2023-02-18T10:04:41.000Z,13.15
2023-02-18T10:05:40.000Z,13.22
2023-02-18T10:06:36.000Z,13.18
2023-02-18T10:07:38.000Z,13.18
2023-02-18T10:08:41.000Z,13.27
2023-02-18T10:09:36.000Z,13.30
2023-02-18T10:10:42.000Z,13.31
2023-02-18T10:11:39.000Z,13.30
2023-02-18T10:12:36.000Z,13.31
2023-02-18T10:13:36.000Z,13.32
2023-02-18T10:14:36.000Z,13.32
2023-02-18T10:15:36.000Z,13.34
2023-02-18T10:16:36.000Z,13.41
2023-02-18T10:17:36.000Z,13.45
2023-02-18T10:18:41.000Z,13.42
2023-02-18T10:19:38.000Z,13.45
2023-02-18T10:20:36.000Z,13.43
2023-02-18T10:21:36.000Z,13.46
2023-02-18T10:22:36.000Z,13.49
2023-02-18T10:23:39.000Z,13.43
2023-02-18T10:24:40.000Z,13.43
2023-02-18T10:25:42.000Z,13.42
2023-02-18T10:26:36.000Z,13.42
2023-02-18T10:27:38.000Z,13.45
2023-02-18T10:28:36.000Z,13.45
2023-02-18T10:29:36.000Z,13.46
2023-02-18T10:30:53.000Z,13.48
2023-02-18T10:31:41.000Z,13.46
2023-02-18T10:32:40.000Z,13.51
2023-02-18T10:33:45.000Z,13.52
2023-02-18T10:34:45.000Z,13.53
2023-02-18T10:35:51.000Z,13.56
2023-02-18T10:36:45.000Z,13.62
2023-02-18T10:37:52.000Z,13.59
2023-02-18T10:38:52.000Z,13.61
2023-02-18T10:39:46.000Z,13.58
2023-02-18T10:40:59.000Z,13.61
2023-02-18T10:41:46.000Z,13.63
2023-02-18T10:42:48.000Z,13.66
2023-02-18T10:43:46.000Z,13.72
2023-02-18T10:44:56.000Z,13.69
2023-02-18T10:45:48.000Z,13.73
2023-02-18T10:46:59.000Z,13.68
2023-02-18T10:47:47.000Z,13.70
2023-02-18T10:48:50.000Z,13.66
2023-02-18T10:49:46.000Z,13.75
2023-02-18T10:50:39.000Z,13.73
2023-02-18T10:51:48.000Z,13.80
2023-02-18T10:52:43.000Z,13.76
2023-02-18T10:53:43.000Z,13.76
2023-02-18T10:54:46.000Z,13.78
2023-02-18T10:55:43.000Z,13.73
2023-02-18T10:56:48.000Z,13.78
2023-02-18T10:57:45.000Z,13.73
2023-02-18T10:58:44.000Z,13.72
2023-02-18T10:59:36.000Z,13.69
2023-02-18T11:00:38.000Z,13.66
2023-02-18T11:01:38.000Z,13.66
2023-02-18T11:02:38.000Z,13.62
2023-02-18T11:03:40.000Z,13.63
2023-02-18T11:04:39.000Z,13.59
2023-02-18T11:05:37.000Z,13.58
2023-02-18T11:06:48.000Z,13.55
2023-02-18T11:07:37.000Z,13.52
2023-02-18T11:08:43.000Z,13.53
2023-02-18T11:09:46.000Z,13.52
2023-02-18T11:10:41.000Z,13.53
2023-02-18T11:11:37.000Z,13.53
2023-02-18T11:12:46.000Z,13.51
2023-02-18T11:13:38.000Z,13.55
2023-02-18T11:14:43.000Z,13.56
2023-02-18T11:15:36.000Z,13.55
2023-02-18T11:16:42.000Z,13.55
2023-02-18T11:17:36.000Z,13.53
2023-02-18T11:18:42.000Z,13.56
2023-02-18T11:19:37.000Z,13.58
2023-02-18T11:20:37.000Z,13.53
2023-02-18T11:21:36.000Z,13.52
2023-02-18T11:22:38.000Z,13.52
2023-02-18T11:23:46.000Z,13.52
2023-02-18T11:24:37.000Z,13.55
2023-02-18T11:25:38.000Z,13.53
2023-02-18T11:26:38.000Z,13.53
2023-02-18T11:27:46.000Z,13.56
2023-02-18T11:28:43.000Z,13.53
2023-02-18T11:29:36.000Z,13.59
2023-02-18T11:30:39.000Z,13.62
2023-02-18T11:31:41.000Z,13.59
2023-02-18T11:32:36.000Z,13.65
2023-02-18T11:33:41.000Z,13.62
2023-02-18T11:34:41.000Z,13.65
2023-02-18T11:35:36.000Z,13.61
2023-02-18T11:36:38.000Z,13.65
2023-02-18T11:37:37.000Z,13.65
2023-02-18T11:38:47.000Z,13.62
2023-02-18T11:39:44.000Z,13.63
2023-02-18T11:40:36.000Z,13.63
2023-02-18T11:41:39.000Z,13.68
2023-02-18T11:42:36.000Z,13.66
2023-02-18T11:43:41.000Z,13.70
2023-02-18T11:44:41.000Z,13.72
2023-02-18T11:45:36.000Z,13.72
2023-02-18T11:46:36.000Z,13.70
2023-02-18T11:47:36.000Z,13.69
2023-02-18T11:48:36.000Z,13.69
2023-02-18T11:49:36.000Z,13.70
2023-02-18T11:50:36.000Z,13.70
2023-02-18T11:51:39.000Z,13.69
2023-02-18T11:52:40.000Z,13.69
2023-02-18T11:53:36.000Z,13.70
2023-02-18T11:54:36.000Z,13.70
2023-02-18T11:55:37.000Z,13.73
2023-02-18T11:56:37.000Z,13.72
2023-02-18T11:57:40.000Z,13.69
2023-02-18T11:58:46.000Z,13.68
2023-02-18T11:59:39.000Z,13.75
2023-02-18T12:00:40.000Z,13.75
2023-02-18T12:01:47.000Z,13.73
2023-02-18T12:02:39.000Z,13.75
2023-02-18T12:03:51.000Z,13.75
2023-02-18T12:04:42.000Z,13.73
2023-02-18T12:05:37.000Z,13.73
2023-02-18T12:06:44.000Z,13.76
2023-02-18T12:07:43.000Z,13.73
2023-02-18T12:08:49.000Z,13.73
2023-02-18T12:09:41.000Z,13.72
2023-02-18T12:10:45.000Z,13.76
2023-02-18T12:11:43.000Z,13.73
2023-02-18T12:12:49.000Z,13.73
2023-02-18T12:13:45.000Z,13.72
2023-02-18T12:14:36.000Z,13.70
2023-02-18T12:15:47.000Z,13.69
2023-02-18T12:16:53.000Z,13.72
2023-02-18T12:18:03.000Z,13.66
2023-02-18T12:18:59.000Z,13.66
2023-02-18T12:19:46.000Z,13.68
2023-02-18T12:21:02.000Z,13.69
2023-02-18T12:21:55.000Z,13.70
2023-02-18T12:22:49.000Z,13.68
2023-02-18T12:23:46.000Z,13.69
2023-02-18T12:24:59.000Z,13.70
2023-02-18T12:25:46.000Z,13.73
2023-02-18T12:26:56.000Z,13.76
2023-02-18T12:27:47.000Z,13.76
2023-02-18T12:28:46.000Z,13.72
2023-02-18T12:29:55.000Z,13.73
2023-02-18T12:30:59.000Z,13.75
2023-02-18T12:31:46.000Z,13.76
2023-02-18T12:32:46.000Z,13.75
2023-02-18T12:33:56.000Z,13.72
2023-02-18T12:34:46.000Z,13.75
2023-02-18T12:36:02.000Z,13.76
2023-02-18T12:36:53.000Z,13.78
2023-02-18T12:38:04.000Z,13.72
2023-02-18T12:38:49.000Z,13.78
2023-02-18T12:39:46.000Z,13.75
2023-02-18T12:40:46.000Z,13.73
2023-02-18T12:41:56.000Z,13.75
2023-02-18T12:42:49.000Z,13.73
2023-02-18T12:43:46.000Z,13.70
2023-02-18T12:44:46.000Z,13.75
2023-02-18T12:46:09.000Z,13.73
2023-02-18T12:46:56.000Z,13.75
2023-02-18T12:47:56.000Z,13.75
2023-02-18T12:48:58.000Z,13.75
2023-02-18T12:49:48.000Z,13.75
2023-02-18T12:50:45.000Z,13.78
2023-02-18T12:51:59.000Z,13.82
2023-02-18T12:53:04.000Z,13.83